createdAt,value
2022-08-01T00:03:55.226Z,1.30
2022-08-01T00:07:56.859Z,1.30
2022-08-01T00:11:59.872Z,1.70
2022-08-01T00:16:03.374Z,1.60
2022-08-01T00:20:07.245Z,1.30
2022-08-01T00:24:09.283Z,1.60
2022-08-01T00:28:17.035Z,1.53
2022-08-01T00:32:20.045Z,1.43
2022-08-01T00:36:21.540Z,1.40
2022-08-01T00:40:23.710Z,1.50
2022-08-01T00:44:25.197Z,1.30
2022-08-01T00:48:28.903Z,1.53
2022-08-01T00:52:30.668Z,1.50
2022-08-01T00:56:32.457Z,1.80
2022-08-01T01:00:52.189Z,1.50
2022-08-01T01:04:56.417Z,1.47
2022-08-01T01:09:10.102Z,1.50
2022-08-01T01:13:18.466Z,1.50
2022-08-01T01:17:49.508Z,1.37
2022-08-01T01:22:01.842Z,1.60
2022-08-01T01:26:22.175Z,1.43
2022-08-01T01:30:27.569Z,1.40
2022-08-01T01:34:32.469Z,1.70
2022-08-01T01:38:38.753Z,1.40
2022-08-01T01:42:42.236Z,1.60
2022-08-01T01:46:48.097Z,1.50
2022-08-01T01:50:50.654Z,1.60
2022-08-01T01:54:55.065Z,1.57
2022-08-01T01:59:02.598Z,1.63
2022-08-01T02:03:07.823Z,1.60
2022-08-01T02:07:11.386Z,1.83
2022-08-01T02:11:12.993Z,2.30
2022-08-01T02:15:16.061Z,1.80
2022-08-01T02:19:19.961Z,1.90
2022-08-01T02:23:23.352Z,1.53
2022-08-01T02:27:29.425Z,1.50
2022-08-01T02:31:35.894Z,1.60
2022-08-01T02:36:30.629Z,1.60
2022-08-01T02:40:06.617Z,1.50
2022-08-01T02:44:15.681Z,1.67
2022-08-01T02:48:19.625Z,1.90
2022-08-01T02:52:26.087Z,1.60
2022-08-01T02:56:32.710Z,1.80
2022-08-01T03:00:35.369Z,1.70
2022-08-01T03:04:41.217Z,1.43
2022-08-01T03:08:45.882Z,1.70
2022-08-01T03:12:49.143Z,1.90
2022-08-01T03:16:53.074Z,2.00
2022-08-01T03:20:56.364Z,2.03
2022-08-01T03:25:01.894Z,1.73
2022-08-01T03:29:07.411Z,1.87
2022-08-01T03:33:10.334Z,2.07
2022-08-01T03:37:22.518Z,2.20
2022-08-01T03:41:28.442Z,2.00
2022-08-01T03:45:35.178Z,2.47
2022-08-01T03:49:41.141Z,2.30
2022-08-01T03:53:44.668Z,2.50
2022-08-01T03:57:49.219Z,3.00
2022-08-01T04:01:51.437Z,3.10
2022-08-01T04:05:53.054Z,3.50
2022-08-01T04:09:54.690Z,3.23
2022-08-01T04:13:57.803Z,3.30
2022-08-01T04:17:59.452Z,3.37
2022-08-01T04:22:01.524Z,3.30
2022-08-01T04:26:06.408Z,3.87
2022-08-01T04:30:11.250Z,4.33
2022-08-01T04:34:23.630Z,4.40
2022-08-01T04:38:27.473Z,4.50
2022-08-01T04:42:33.311Z,4.80
2022-08-01T04:46:37.905Z,4.40
2022-08-01T04:50:39.503Z,5.20
2022-08-01T04:54:40.948Z,5.50
2022-08-01T04:58:44.702Z,4.87
2022-08-01T05:02:47.580Z,5.17
2022-08-01T05:06:49.429Z,4.60
2022-08-01T05:10:51.005Z,5.20
2022-08-01T05:14:52.557Z,6.03
2022-08-01T05:18:55.457Z,5.93
2022-08-01T05:22:59.438Z,5.97
2022-08-01T05:27:01.555Z,6.10
2022-08-01T05:31:05.154Z,6.13
2022-08-01T05:35:09.346Z,6.43
2022-08-01T05:39:11.157Z,6.80
2022-08-01T05:43:12.662Z,7.03
2022-08-01T05:47:14.289Z,7.53
2022-08-01T05:51:17.278Z,6.63
2022-08-01T05:55:18.753Z,7.20
2022-08-01T05:59:21.369Z,7.43
2022-08-01T06:03:23.725Z,6.70
2022-08-01T06:07:26.756Z,6.67
2022-08-01T06:11:28.351Z,7.20
2022-08-01T06:15:30.185Z,6.70
2022-08-01T06:19:31.750Z,7.13
2022-08-01T06:23:35.469Z,7.33
2022-08-01T06:27:37.074Z,7.83
2022-08-01T06:31:38.531Z,7.77
2022-08-01T06:35:40.086Z,6.83
2022-08-01T06:39:43.021Z,6.77
2022-08-01T06:43:45.701Z,6.37
2022-08-01T06:47:48.827Z,6.83
2022-08-01T06:51:53.078Z,6.73
2022-08-01T06:55:56.301Z,6.60
2022-08-01T06:59:57.880Z,5.90
2022-08-01T07:03:59.367Z,5.57
2022-08-01T07:08:01.052Z,5.97
2022-08-01T07:12:05.051Z,6.23
2022-08-01T07:16:06.709Z,5.60
2022-08-01T07:20:10.535Z,5.20
2022-08-01T07:24:15.013Z,5.80
2022-08-01T07:28:18.064Z,6.50
2022-08-01T07:32:19.864Z,5.70
2022-08-01T07:36:21.385Z,5.83
2022-08-01T07:40:23.544Z,5.77
2022-08-01T07:44:28.282Z,5.90
2022-08-01T07:48:30.881Z,5.60
2022-08-01T07:52:32.776Z,5.83
2022-08-01T07:56:34.361Z,5.43
2022-08-01T08:00:37.181Z,4.83
2022-08-01T08:04:38.636Z,4.73
2022-08-01T08:08:40.326Z,4.83
2022-08-01T08:12:42.246Z,4.50
2022-08-01T08:16:46.281Z,4.50
2022-08-01T08:20:47.854Z,4.17
2022-08-01T08:24:51.703Z,4.43
2022-08-01T08:28:54.704Z,3.40
2022-08-01T08:32:57.510Z,3.70
2022-08-01T08:36:59.559Z,3.53
2022-08-01T08:41:01.048Z,3.80
2022-08-01T08:45:02.925Z,3.80
2022-08-01T08:49:06.610Z,4.17
2022-08-01T08:53:11.713Z,4.40
2022-08-01T08:57:16.158Z,4.10
2022-08-01T09:01:18.012Z,4.10
2022-08-01T09:05:25.832Z,4.00
2022-08-01T09:09:40.903Z,3.83
2022-08-01T09:14:02.546Z,3.87
2022-08-01T09:18:04.533Z,3.80
2022-08-01T09:22:10.967Z,3.97
2022-08-01T09:26:14.360Z,3.50
2022-08-01T09:30:19.618Z,4.63
2022-08-01T09:34:27.319Z,3.70
2022-08-01T09:38:30.342Z,3.40
2022-08-01T09:42:31.919Z,2.80
2022-08-01T09:46:33.668Z,3.38
2022-08-01T09:50:40.543Z,3.00
2022-08-01T09:54:51.935Z,3.15
2022-08-01T09:58:59.816Z,3.25
2022-08-01T10:03:20.705Z,2.92
2022-08-01T10:07:27.664Z,3.30
2022-08-01T10:11:46.944Z,3.20
2022-08-01T10:15:50.028Z,3.25
2022-08-01T10:19:52.353Z,3.00
2022-08-01T10:24:02.511Z,3.10
2022-08-01T10:28:14.467Z,2.67
2022-08-01T10:32:20.360Z,2.63
2022-08-01T10:36:23.739Z,2.45
2022-08-01T10:40:31.425Z,2.38
2022-08-01T10:44:35.034Z,2.60
2022-08-01T10:48:44.103Z,2.60
2022-08-01T10:53:10.738Z,2.88
2022-08-01T10:57:18.403Z,2.92
2022-08-01T11:01:27.606Z,2.33
2022-08-01T11:05:34.207Z,3.03
2022-08-01T11:09:48.210Z,2.13
2022-08-01T11:14:03.914Z,2.78
2022-08-01T11:18:31.233Z,2.50
2022-08-01T11:22:32.937Z,2.33
2022-08-01T11:26:34.642Z,2.78
2022-08-01T11:30:36.681Z,2.97
2022-08-01T11:34:55.307Z,2.40
2022-08-01T11:39:18.374Z,2.25
2022-08-01T11:43:19.958Z,2.35
2022-08-01T11:47:46.352Z,2.50
2022-08-01T11:51:58.479Z,2.00
2022-08-01T11:56:01.793Z,2.03
2022-08-01T12:00:15.274Z,1.90
2022-08-01T12:04:17.963Z,2.17
2022-08-01T12:08:27.677Z,1.73
2022-08-01T12:12:30.540Z,2.28
2022-08-01T12:16:33.466Z,2.40
2022-08-01T12:20:36.847Z,2.35
2022-08-01T12:24:43.073Z,2.60
2022-08-01T12:28:44.720Z,2.83
2022-08-01T12:32:48.163Z,2.53
2022-08-01T12:36:49.768Z,2.38
2022-08-01T12:40:53.280Z,2.80
2022-08-01T12:44:56.122Z,2.75
2022-08-01T12:48:57.978Z,2.50
2022-08-01T12:52:59.656Z,2.47
2022-08-01T12:57:02.636Z,2.60
2022-08-01T13:01:06.196Z,2.53
2022-08-01T13:05:09.588Z,2.25
2022-08-01T13:09:12.372Z,1.92
2022-08-01T13:13:28.017Z,2.25
2022-08-01T13:17:31.647Z,1.83
2022-08-01T13:21:53.073Z,1.92
2022-08-01T13:25:56.393Z,1.77
2022-08-01T13:30:11.423Z,1.95
2022-08-01T13:34:13.584Z,2.00
2022-08-01T13:38:15.223Z,2.03
2022-08-01T13:42:19.086Z,2.20
2022-08-01T13:46:22.697Z,2.25
2022-08-01T13:50:24.185Z,1.70
2022-08-01T13:54:25.739Z,1.60
2022-08-01T13:58:27.465Z,1.50
2022-08-01T14:02:30.501Z,1.45
2022-08-01T14:06:33.051Z,1.40
2022-08-01T14:10:34.827Z,1.40
2022-08-01T14:14:36.498Z,1.40
2022-08-01T14:18:40.845Z,1.60
2022-08-01T14:22:45.887Z,1.60
2022-08-01T14:26:47.393Z,1.40
2022-08-01T14:30:49.017Z,1.30
2022-08-01T14:34:52.116Z,1.30
2022-08-01T14:38:54.872Z,1.30
2022-08-01T14:43:03.507Z,1.25
2022-08-01T14:47:16.224Z,1.33
2022-08-01T14:51:25.088Z,1.35
2022-08-01T14:55:27.051Z,1.50
2022-08-01T14:59:28.843Z,1.80
2022-08-01T15:03:30.599Z,1.30
2022-08-01T15:07:33.509Z,1.50
2022-08-01T15:11:35.190Z,1.52
2022-08-01T15:15:39.143Z,1.67
2022-08-01T15:19:42.520Z,1.83
2022-08-01T15:23:45.591Z,1.60
2022-08-01T15:27:47.846Z,1.60
2022-08-01T15:31:49.351Z,1.50
2022-08-01T15:35:53.074Z,1.40
2022-08-01T15:39:56.740Z,1.40
2022-08-01T15:43:58.490Z,1.35
2022-08-01T15:47:59.966Z,1.50
2022-08-01T15:52:01.650Z,1.30
2022-08-01T15:56:04.775Z,1.33
2022-08-01T16:00:07.695Z,1.40
2022-08-01T16:04:09.495Z,1.27
2022-08-01T16:08:11.230Z,1.65
2022-08-01T16:12:14.177Z,1.50
2022-08-01T16:16:16.060Z,1.63
2022-08-01T16:20:17.635Z,1.33
2022-08-01T16:24:19.215Z,1.60
2022-08-01T16:28:22.614Z,1.70
2022-08-01T16:32:28.310Z,1.60
2022-08-01T16:36:45.780Z,1.50
2022-08-01T16:40:48.020Z,1.40
2022-08-01T16:44:50.967Z,1.60
2022-08-01T16:48:53.364Z,1.38
2022-08-01T16:52:54.935Z,1.42
2022-08-01T16:56:58.164Z,1.30
2022-08-01T17:01:59.536Z,1.30
2022-08-01T17:05:33.765Z,1.20
2022-08-01T17:09:38.684Z,1.20
2022-08-01T17:13:45.527Z,1.50
2022-08-01T17:17:50.961Z,1.33
2022-08-01T17:21:52.527Z,1.30
2022-08-01T17:25:54.023Z,1.37
2022-08-01T17:29:55.798Z,1.30
2022-08-01T17:33:59.888Z,1.20
2022-08-01T17:38:01.506Z,1.40
2022-08-01T17:42:03.170Z,1.60
2022-08-01T17:46:04.723Z,1.70
2022-08-01T17:50:10.029Z,1.70
2022-08-01T17:54:11.974Z,1.23
2022-08-01T17:58:13.437Z,1.23
2022-08-01T18:02:14.949Z,1.30
2022-08-01T18:06:19.097Z,1.80
2022-08-01T18:10:21.307Z,1.67
2022-08-01T18:14:39.881Z,1.30
2022-08-01T18:18:42.480Z,1.67
2022-08-01T18:22:45.310Z,1.40
2022-08-01T18:26:46.798Z,1.50
2022-08-01T18:30:48.481Z,1.37
2022-08-01T18:34:50.144Z,1.30
2022-08-01T18:38:52.985Z,1.40
2022-08-01T18:42:54.453Z,1.30
2022-08-01T18:46:57.286Z,1.20
2022-08-01T18:50:58.927Z,1.33
2022-08-01T18:55:02.042Z,1.50
2022-08-01T18:59:03.543Z,1.50
2022-08-01T19:03:05.201Z,1.00
2022-08-01T19:07:06.990Z,1.40
2022-08-01T19:11:11.468Z,1.30
2022-08-01T19:15:12.995Z,1.10
2022-08-01T19:19:14.670Z,1.30
2022-08-01T19:23:29.278Z,1.20
2022-08-01T19:27:35.524Z,1.10
2022-08-01T19:31:40.936Z,1.30
2022-08-01T19:35:44.359Z,1.10
2022-08-01T19:39:46.063Z,1.10
2022-08-01T19:43:51.011Z,1.53
2022-08-01T19:47:57.317Z,1.30
2022-08-01T19:52:01.883Z,1.20
2022-08-01T19:56:04.499Z,1.40
2022-08-01T20:00:09.206Z,1.37
2022-08-01T20:04:25.823Z,1.23
2022-08-01T20:08:28.872Z,1.70
2022-08-01T20:12:30.546Z,1.40
2022-08-01T20:16:33.452Z,1.20
2022-08-01T20:20:36.511Z,1.40
2022-08-01T20:24:43.423Z,1.40
2022-08-01T20:28:49.028Z,1.50
2022-08-01T20:32:52.464Z,1.83
2022-08-01T20:37:00.513Z,1.70
2022-08-01T20:41:03.136Z,1.50
2022-08-01T20:45:05.824Z,1.33
2022-08-01T20:49:12.270Z,1.30
2022-08-01T20:53:13.931Z,1.70
2022-08-01T20:57:21.564Z,1.50
2022-08-01T21:01:27.941Z,1.57
2022-08-01T21:05:36.772Z,1.30
2022-08-01T21:09:39.972Z,1.50
2022-08-01T21:13:44.304Z,1.47
2022-08-01T21:17:53.441Z,1.33
2022-08-01T21:22:06.989Z,1.63
2022-08-01T21:26:13.193Z,1.33
2022-08-01T21:30:14.924Z,1.57
2022-08-01T21:34:17.093Z,1.63
2022-08-01T21:38:20.003Z,1.53
2022-08-01T21:42:25.893Z,1.70
2022-08-01T21:46:30.000Z,1.60
2022-08-01T21:50:41.331Z,1.73
2022-08-01T21:54:56.895Z,1.47
2022-08-01T21:59:09.793Z,1.60
2022-08-01T22:03:22.577Z,1.60
2022-08-01T22:07:25.973Z,1.70
2022-08-01T22:11:32.723Z,1.70
2022-08-01T22:15:44.428Z,1.50
2022-08-01T22:19:51.894Z,1.80
2022-08-01T22:23:55.845Z,1.80
2022-08-01T22:28:08.483Z,1.67
2022-08-01T22:32:11.875Z,1.73
2022-08-01T22:36:13.806Z,1.87
2022-08-01T22:40:15.630Z,1.80
2022-08-01T22:44:28.074Z,1.80
2022-08-01T22:48:37.179Z,1.63
2022-08-01T22:52:48.682Z,2.00
2022-08-01T22:56:55.514Z,1.87
2022-08-01T23:01:02.629Z,1.90
2022-08-01T23:05:06.953Z,1.80
2022-08-01T23:09:09.481Z,1.80
2022-08-01T23:13:11.817Z,1.63
2022-08-01T23:17:27.526Z,1.70
2022-08-01T23:21:33.000Z,2.07
2022-08-01T23:25:36.612Z,1.90
2022-08-01T23:29:38.412Z,1.90
2022-08-01T23:33:41.445Z,1.97
2022-08-01T23:37:42.996Z,1.80
2022-08-01T23:41:57.472Z,2.40
2022-08-01T23:46:04.638Z,2.00
2022-08-01T23:50:09.008Z,2.10
2022-08-01T23:54:10.791Z,2.53
2022-08-01T23:58:12.286Z,2.40
